sensor_id;sensor_type;location;lat;lon;timestamp;P1;durP1;ratioP1;P2;durP2;ratioP2
79375;SDS011;68846;53.150;18.136;2024-03-02T00:01:42;69.40;;;30.60;;
79375;SDS011;68846;53.150;18.136;2024-03-02T00:04:10;74.00;;;31.40;;
79375;SDS011;68846;53.150;18.136;2024-03-02T00:06:38;71.60;;;32.30;;
79375;SDS011;68846;53.150;18.136;2024-03-02T00:09:07;72.30;;;30.90;;
79375;SDS011;68846;53.150;18.136;2024-03-02T00:11:37;69.90;;;30.80;;
79375;SDS011;68846;53.150;18.136;2024-03-02T00:14:05;69.70;;;33.40;;
79375;SDS011;68846;53.150;18.136;2024-03-02T00:18:18;71.10;;;33.80;;
79375;SDS011;68846;53.150;18.136;2024-03-02T00:20:48;71.20;;;31.40;;
79375;SDS011;68846;53.150;18.136;2024-03-02T00:23:16;72.10;;;32.00;;
79375;SDS011;68846;53.150;18.136;2024-03-02T00:25:48;67.70;;;31.00;;
79375;SDS011;68846;53.150;18.136;2024-03-02T00:28:36;70.30;;;33.40;;
79375;SDS011;68846;53.150;18.136;2024-03-02T00:31:21;73.60;;;32.70;;
79375;SDS011;68846;53.150;18.136;2024-03-02T00:33:49;71.10;;;31.40;;
79375;SDS011;68846;53.150;18.136;2024-03-02T00:36:26;69.40;;;31.50;;
79375;SDS011;68846;53.150;18.136;2024-03-02T00:38:54;65.80;;;30.80;;
79375;SDS011;68846;53.150;18.136;2024-03-02T00:41:30;70.80;;;32.20;;
79375;SDS011;68846;53.150;18.136;2024-03-02T00:44:02;72.50;;;32.00;;
79375;SDS011;68846;53.150;18.136;2024-03-02T00:46:37;64.40;;;29.40;;
79375;SDS011;68846;53.150;18.136;2024-03-02T00:49:23;62.90;;;29.90;;
79375;SDS011;68846;53.150;18.136;2024-03-02T00:51:52;66.60;;;30.70;;
79375;SDS011;68846;53.150;18.136;2024-03-02T00:54:22;69.30;;;29.60;;
79375;SDS011;68846;53.150;18.136;2024-03-02T00:56:53;72.70;;;31.20;;
79375;SDS011;68846;53.150;18.136;2024-03-02T00:59:22;66.10;;;29.40;;
79375;SDS011;68846;53.150;18.136;2024-03-02T01:01:51;66.30;;;30.60;;
79375;SDS011;68846;53.150;18.136;2024-03-02T01:04:19;68.70;;;31.40;;
79375;SDS011;68846;53.150;18.136;2024-03-02T01:06:47;64.50;;;30.20;;
79375;SDS011;68846;53.150;18.136;2024-03-02T01:09:15;69.50;;;30.90;;
79375;SDS011;68846;53.150;18.136;2024-03-02T01:11:45;65.70;;;29.80;;
79375;SDS011;68846;53.150;18.136;2024-03-02T01:14:14;66.40;;;29.40;;
79375;SDS011;68846;53.150;18.136;2024-03-02T01:16:48;64.40;;;28.50;;
79375;SDS011;68846;53.150;18.136;2024-03-02T01:19:16;63.00;;;28.30;;
79375;SDS011;68846;53.150;18.136;2024-03-02T01:21:44;64.60;;;28.10;;
79375;SDS011;68846;53.150;18.136;2024-03-02T01:24:12;60.30;;;28.90;;
79375;SDS011;68846;53.150;18.136;2024-03-02T01:26:40;64.10;;;28.80;;
79375;SDS011;68846;53.150;18.136;2024-03-02T01:29:08;58.70;;;28.60;;
79375;SDS011;68846;53.150;18.136;2024-03-02T01:31:36;58.70;;;28.00;;
79375;SDS011;68846;53.150;18.136;2024-03-02T01:34:05;61.80;;;29.10;;
79375;SDS011;68846;53.150;18.136;2024-03-02T01:36:33;61.20;;;27.80;;
79375;SDS011;68846;53.150;18.136;2024-03-02T01:39:01;61.80;;;28.60;;
79375;SDS011;68846;53.150;18.136;2024-03-02T01:41:29;56.60;;;28.90;;
79375;SDS011;68846;53.150;18.136;2024-03-02T01:43:57;61.90;;;28.00;;
79375;SDS011;68846;53.150;18.136;2024-03-02T01:46:26;56.80;;;27.10;;
79375;SDS011;68846;53.150;18.136;2024-03-02T01:48:54;56.50;;;25.90;;
79375;SDS011;68846;53.150;18.136;2024-03-02T01:51:22;57.00;;;27.10;;
79375;SDS011;68846;53.150;18.136;2024-03-02T01:53:49;56.80;;;26.40;;
79375;SDS011;68846;53.150;18.136;2024-03-02T01:56:17;50.60;;;25.20;;
79375;SDS011;68846;53.150;18.136;2024-03-02T01:58:45;53.50;;;25.90;;
79375;SDS011;68846;53.150;18.136;2024-03-02T02:01:13;60.80;;;27.10;;
79375;SDS011;68846;53.150;18.136;2024-03-02T02:03:41;56.60;;;26.30;;
79375;SDS011;68846;53.150;18.136;2024-03-02T02:06:10;56.40;;;25.80;;
79375;SDS011;68846;53.150;18.136;2024-03-02T02:08:38;49.90;;;23.60;;
79375;SDS011;68846;53.150;18.136;2024-03-02T02:11:07;52.90;;;24.00;;
79375;SDS011;68846;53.150;18.136;2024-03-02T02:13:35;49.70;;;22.80;;
79375;SDS011;68846;53.150;18.136;2024-03-02T02:16:08;46.90;;;23.30;;
79375;SDS011;68846;53.150;18.136;2024-03-02T02:18:36;50.10;;;23.50;;
79375;SDS011;68846;53.150;18.136;2024-03-02T02:21:04;47.80;;;23.70;;
79375;SDS011;68846;53.150;18.136;2024-03-02T02:23:32;49.50;;;23.90;;
79375;SDS011;68846;53.150;18.136;2024-03-02T02:26:00;45.50;;;22.70;;
79375;SDS011;68846;53.150;18.136;2024-03-02T02:28:27;47.60;;;23.00;;
79375;SDS011;68846;53.150;18.136;2024-03-02T02:30:55;44.70;;;24.20;;
79375;SDS011;68846;53.150;18.136;2024-03-02T02:33:23;45.70;;;22.60;;
79375;SDS011;68846;53.150;18.136;2024-03-02T02:35:51;48.70;;;23.50;;
79375;SDS011;68846;53.150;18.136;2024-03-02T02:38:19;52.00;;;22.70;;
79375;SDS011;68846;53.150;18.136;2024-03-02T02:40:47;43.40;;;20.40;;
79375;SDS011;68846;53.150;18.136;2024-03-02T02:43:15;41.90;;;20.20;;
79375;SDS011;68846;53.150;18.136;2024-03-02T02:45:44;47.10;;;20.70;;
79375;SDS011;68846;53.150;18.136;2024-03-02T02:48:13;44.50;;;21.00;;
79375;SDS011;68846;53.150;18.136;2024-03-02T02:50:41;41.30;;;22.20;;
79375;SDS011;68846;53.150;18.136;2024-03-02T02:53:09;37.40;;;18.80;;
79375;SDS011;68846;53.150;18.136;2024-03-02T02:55:39;39.00;;;20.70;;
79375;SDS011;68846;53.150;18.136;2024-03-02T02:58:07;38.50;;;20.70;;
79375;SDS011;68846;53.150;18.136;2024-03-02T03:00:37;41.40;;;20.90;;
79375;SDS011;68846;53.150;18.136;2024-03-02T03:03:04;45.20;;;20.70;;
79375;SDS011;68846;53.150;18.136;2024-03-02T03:05:32;38.30;;;19.70;;
79375;SDS011;68846;53.150;18.136;2024-03-02T03:08:00;43.20;;;20.80;;
79375;SDS011;68846;53.150;18.136;2024-03-02T03:10:28;36.50;;;19.30;;
79375;SDS011;68846;53.150;18.136;2024-03-02T03:12:55;40.00;;;21.50;;
79375;SDS011;68846;53.150;18.136;2024-03-02T03:15:24;39.10;;;20.00;;
79375;SDS011;68846;53.150;18.136;2024-03-02T03:17:53;38.70;;;19.20;;
79375;SDS011;68846;53.150;18.136;2024-03-02T03:20:21;37.40;;;19.40;;
79375;SDS011;68846;53.150;18.136;2024-03-02T03:22:51;38.20;;;20.30;;
79375;SDS011;68846;53.150;18.136;2024-03-02T03:25:18;42.90;;;20.50;;
79375;SDS011;68846;53.150;18.136;2024-03-02T03:27:46;39.70;;;20.30;;
79375;SDS011;68846;53.150;18.136;2024-03-02T03:30:14;34.70;;;18.30;;
79375;SDS011;68846;53.150;18.136;2024-03-02T03:32:42;37.70;;;19.70;;
79375;SDS011;68846;53.150;18.136;2024-03-02T03:35:10;40.30;;;20.40;;
79375;SDS011;68846;53.150;18.136;2024-03-02T03:37:37;33.80;;;17.80;;
79375;SDS011;68846;53.150;18.136;2024-03-02T03:40:06;35.30;;;18.90;;
79375;SDS011;68846;53.150;18.136;2024-03-02T03:42:37;36.30;;;19.20;;
79375;SDS011;68846;53.150;18.136;2024-03-02T03:45:06;35.10;;;17.70;;
79375;SDS011;68846;53.150;18.136;2024-03-02T03:47:34;32.20;;;17.90;;
79375;SDS011;68846;53.150;18.136;2024-03-02T03:50:02;35.90;;;17.10;;
79375;SDS011;68846;53.150;18.136;2024-03-02T03:52:34;29.30;;;16.10;;
79375;SDS011;68846;53.150;18.136;2024-03-02T03:55:05;33.00;;;18.00;;
79375;SDS011;68846;53.150;18.136;2024-03-02T03:57:33;30.00;;;17.80;;
79375;SDS011;68846;53.150;18.136;2024-03-02T04:00:01;29.50;;;16.50;;
79375;SDS011;68846;53.150;18.136;2024-03-02T04:02:39;34.20;;;16.80;;
79375;SDS011;68846;53.150;18.136;2024-03-02T04:05:07;29.00;;;17.10;;
79375;SDS011;68846;53.150;18.136;2024-03-02T04:07:38;30.10;;;15.60;;
79375;SDS011;68846;53.150;18.136;2024-03-02T04:10:08;31.40;;;15.90;;
79375;SDS011;68846;53.150;18.136;2024-03-02T04:12:37;30.60;;;16.00;;
79375;SDS011;68846;53.150;18.136;2024-03-02T04:15:05;28.50;;;16.00;;
79375;SDS011;68846;53.150;18.136;2024-03-02T04:17:34;31.10;;;15.70;;
79375;SDS011;68846;53.150;18.136;2024-03-02T04:20:03;29.50;;;15.80;;
79375;SDS011;68846;53.150;18.136;2024-03-02T04:22:33;31.00;;;16.20;;
79375;SDS011;68846;53.150;18.136;2024-03-02T04:25:03;31.70;;;17.00;;
79375;SDS011;68846;53.150;18.136;2024-03-02T04:27:32;31.30;;;16.60;;
79375;SDS011;68846;53.150;18.136;2024-03-02T04:30:00;30.80;;;16.20;;
79375;SDS011;68846;53.150;18.136;2024-03-02T04:32:28;32.60;;;18.00;;
79375;SDS011;68846;53.150;18.136;2024-03-02T04:34:56;31.50;;;18.00;;
79375;SDS011;68846;53.150;18.136;2024-03-02T04:37:23;28.80;;;15.30;;
79375;SDS011;68846;53.150;18.136;2024-03-02T04:39:51;30.50;;;14.50;;
79375;SDS011;68846;53.150;18.136;2024-03-02T04:42:19;31.50;;;16.60;;
79375;SDS011;68846;53.150;18.136;2024-03-02T04:44:46;31.50;;;17.50;;
79375;SDS011;68846;53.150;18.136;2024-03-02T04:47:14;33.70;;;18.00;;
79375;SDS011;68846;53.150;18.136;2024-03-02T04:49:42;29.90;;;16.40;;
79375;SDS011;68846;53.150;18.136;2024-03-02T04:52:10;31.40;;;17.40;;
79375;SDS011;68846;53.150;18.136;2024-03-02T04:54:39;33.30;;;17.70;;
79375;SDS011;68846;53.150;18.136;2024-03-02T04:57:25;29.40;;;15.80;;
79375;SDS011;68846;53.150;18.136;2024-03-02T04:59:54;30.00;;;16.70;;
79375;SDS011;68846;53.150;18.136;2024-03-02T05:02:22;33.30;;;17.30;;
79375;SDS011;68846;53.150;18.136;2024-03-02T05:04:50;28.00;;;16.40;;
79375;SDS011;68846;53.150;18.136;2024-03-02T05:07:17;32.20;;;16.30;;
79375;SDS011;68846;53.150;18.136;2024-03-02T05:09:45;28.50;;;16.00;;
79375;SDS011;68846;53.150;18.136;2024-03-02T05:12:15;29.20;;;16.50;;
79375;SDS011;68846;53.150;18.136;2024-03-02T05:15:02;31.20;;;16.50;;
79375;SDS011;68846;53.150;18.136;2024-03-02T05:17:30;29.30;;;16.40;;
79375;SDS011;68846;53.150;18.136;2024-03-02T05:19:58;34.80;;;17.60;;
79375;SDS011;68846;53.150;18.136;2024-03-02T05:22:26;37.70;;;18.20;;
79375;SDS011;68846;53.150;18.136;2024-03-02T05:24:55;35.90;;;18.30;;
79375;SDS011;68846;53.150;18.136;2024-03-02T05:27:23;31.70;;;17.80;;
79375;SDS011;68846;53.150;18.136;2024-03-02T05:29:51;30.80;;;17.90;;
79375;SDS011;68846;53.150;18.136;2024-03-02T05:32:20;34.70;;;19.30;;
79375;SDS011;68846;53.150;18.136;2024-03-02T05:34:48;34.40;;;17.30;;
79375;SDS011;68846;53.150;18.136;2024-03-02T05:37:18;32.30;;;16.70;;
79375;SDS011;68846;53.150;18.136;2024-03-02T05:39:45;31.00;;;17.00;;
79375;SDS011;68846;53.150;18.136;2024-03-02T05:42:13;33.50;;;18.30;;
79375;SDS011;68846;53.150;18.136;2024-03-02T05:44:42;33.00;;;18.10;;
79375;SDS011;68846;53.150;18.136;2024-03-02T05:47:09;33.90;;;19.00;;
79375;SDS011;68846;53.150;18.136;2024-03-02T05:49:37;34.20;;;18.80;;
79375;SDS011;68846;53.150;18.136;2024-03-02T05:52:05;34.30;;;17.40;;
79375;SDS011;68846;53.150;18.136;2024-03-02T05:54:34;29.30;;;16.50;;
79375;SDS011;68846;53.150;18.136;2024-03-02T05:57:02;31.10;;;17.50;;
79375;SDS011;68846;53.150;18.136;2024-03-02T05:59:44;34.10;;;18.10;;
79375;SDS011;68846;53.150;18.136;2024-03-02T06:02:12;34.70;;;18.00;;
79375;SDS011;68846;53.150;18.136;2024-03-02T06:04:40;30.60;;;17.40;;
79375;SDS011;68846;53.150;18.136;2024-03-02T06:07:08;34.40;;;18.40;;
79375;SDS011;68846;53.150;18.136;2024-03-02T06:09:36;37.10;;;17.80;;
79375;SDS011;68846;53.150;18.136;2024-03-02T06:12:05;33.70;;;17.70;;
79375;SDS011;68846;53.150;18.136;2024-03-02T06:14:33;36.40;;;18.60;;
79375;SDS011;68846;53.150;18.136;2024-03-02T06:17:00;34.10;;;18.80;;
79375;SDS011;68846;53.150;18.136;2024-03-02T06:19:28;36.40;;;18.40;;
79375;SDS011;68846;53.150;18.136;2024-03-02T06:21:56;36.40;;;18.10;;
79375;SDS011;68846;53.150;18.136;2024-03-02T06:24:24;35.70;;;17.90;;
79375;SDS011;68846;53.150;18.136;2024-03-02T06:26:53;34.10;;;19.20;;
79375;SDS011;68846;53.150;18.136;2024-03-02T06:29:22;38.50;;;19.50;;
79375;SDS011;68846;53.150;18.136;2024-03-02T06:31:49;32.30;;;17.40;;
79375;SDS011;68846;53.150;18.136;2024-03-02T06:34:17;31.50;;;18.30;;
79375;SDS011;68846;53.150;18.136;2024-03-02T06:36:45;34.40;;;17.80;;
79375;SDS011;68846;53.150;18.136;2024-03-02T06:39:13;35.80;;;18.20;;
79375;SDS011;68846;53.150;18.136;2024-03-02T06:41:41;31.60;;;17.50;;
79375;SDS011;68846;53.150;18.136;2024-03-02T06:44:10;32.30;;;17.30;;
79375;SDS011;68846;53.150;18.136;2024-03-02T06:46:37;35.00;;;17.00;;
79375;SDS011;68846;53.150;18.136;2024-03-02T06:49:05;30.60;;;17.20;;
79375;SDS011;68846;53.150;18.136;2024-03-02T06:51:34;33.80;;;18.10;;
79375;SDS011;68846;53.150;18.136;2024-03-02T06:54:01;35.30;;;17.40;;
79375;SDS011;68846;53.150;18.136;2024-03-02T06:56:29;34.40;;;18.20;;
79375;SDS011;68846;53.150;18.136;2024-03-02T06:58:58;33.20;;;17.30;;
79375;SDS011;68846;53.150;18.136;2024-03-02T07:01:26;36.20;;;19.80;;
79375;SDS011;68846;53.150;18.136;2024-03-02T07:03:55;35.20;;;18.60;;
79375;SDS011;68846;53.150;18.136;2024-03-02T07:06:23;33.60;;;17.10;;
79375;SDS011;68846;53.150;18.136;2024-03-02T07:08:52;30.50;;;17.30;;
79375;SDS011;68846;53.150;18.136;2024-03-02T07:11:20;33.00;;;17.60;;
79375;SDS011;68846;53.150;18.136;2024-03-02T07:13:48;33.80;;;18.60;;
79375;SDS011;68846;53.150;18.136;2024-03-02T07:16:15;35.50;;;18.80;;
79375;SDS011;68846;53.150;18.136;2024-03-02T07:18:55;30.60;;;17.50;;
79375;SDS011;68846;53.150;18.136;2024-03-02T07:21:24;34.30;;;19.40;;
79375;SDS011;68846;53.150;18.136;2024-03-02T07:23:52;33.60;;;18.60;;
79375;SDS011;68846;53.150;18.136;2024-03-02T07:26:19;36.30;;;19.10;;
79375;SDS011;68846;53.150;18.136;2024-03-02T07:28:47;32.40;;;17.80;;
79375;SDS011;68846;53.150;18.136;2024-03-02T07:31:16;33.00;;;18.40;;
79375;SDS011;68846;53.150;18.136;2024-03-02T07:33:44;34.00;;;18.40;;
79375;SDS011;68846;53.150;18.136;2024-03-02T07:36:13;34.00;;;18.00;;
79375;SDS011;68846;53.150;18.136;2024-03-02T07:38:42;36.40;;;19.20;;
79375;SDS011;68846;53.150;18.136;2024-03-02T07:41:12;36.40;;;20.40;;
79375;SDS011;68846;53.150;18.136;2024-03-02T07:43:40;38.00;;;20.90;;
79375;SDS011;68846;53.150;18.136;2024-03-02T07:46:07;40.20;;;20.90;;
79375;SDS011;68846;53.150;18.136;2024-03-02T07:48:35;42.50;;;21.40;;
79375;SDS011;68846;53.150;18.136;2024-03-02T07:51:03;37.40;;;20.40;;
79375;SDS011;68846;53.150;18.136;2024-03-02T07:53:31;38.50;;;20.60;;
79375;SDS011;68846;53.150;18.136;2024-03-02T07:59:22;33.00;;;18.10;;
79375;SDS011;68846;53.150;18.136;2024-03-02T08:06:26;33.50;;;19.40;;
79375;SDS011;68846;53.150;18.136;2024-03-02T08:11:27;34.90;;;19.80;;
79375;SDS011;68846;53.150;18.136;2024-03-02T08:13:55;34.20;;;18.50;;
79375;SDS011;68846;53.150;18.136;2024-03-02T08:16:22;36.40;;;20.50;;
79375;SDS011;68846;53.150;18.136;2024-03-02T08:18:51;38.30;;;20.60;;
79375;SDS011;68846;53.150;18.136;2024-03-02T08:21:19;34.80;;;19.70;;
79375;SDS011;68846;53.150;18.136;2024-03-02T08:23:47;37.30;;;21.10;;
79375;SDS011;68846;53.150;18.136;2024-03-02T08:26:46;34.50;;;18.20;;
79375;SDS011;68846;53.150;18.136;2024-03-02T08:29:14;39.50;;;20.30;;
79375;SDS011;68846;53.150;18.136;2024-03-02T08:35:50;36.30;;;19.10;;
79375;SDS011;68846;53.150;18.136;2024-03-02T08:38:20;39.70;;;20.50;;
79375;SDS011;68846;53.150;18.136;2024-03-02T08:40:48;35.90;;;18.70;;
79375;SDS011;68846;53.150;18.136;2024-03-02T08:43:18;34.70;;;19.30;;
79375;SDS011;68846;53.150;18.136;2024-03-02T08:45:46;49.40;;;39.80;;
79375;SDS011;68846;53.150;18.136;2024-03-02T08:48:14;32.50;;;19.60;;
79375;SDS011;68846;53.150;18.136;2024-03-02T08:50:42;35.10;;;19.80;;
79375;SDS011;68846;53.150;18.136;2024-03-02T08:53:10;34.30;;;19.10;;
79375;SDS011;68846;53.150;18.136;2024-03-02T08:55:38;33.60;;;18.00;;
79375;SDS011;68846;53.150;18.136;2024-03-02T08:58:06;32.10;;;17.80;;
79375;SDS011;68846;53.150;18.136;2024-03-02T09:00:34;34.10;;;18.60;;
79375;SDS011;68846;53.150;18.136;2024-03-02T09:03:02;36.20;;;17.60;;
79375;SDS011;68846;53.150;18.136;2024-03-02T09:05:29;30.40;;;17.50;;
79375;SDS011;68846;53.150;18.136;2024-03-02T09:07:57;30.40;;;17.40;;
79375;SDS011;68846;53.150;18.136;2024-03-02T09:10:25;32.70;;;18.00;;
79375;SDS011;68846;53.150;18.136;2024-03-02T09:12:53;35.90;;;18.50;;
79375;SDS011;68846;53.150;18.136;2024-03-02T09:15:46;37.40;;;19.70;;
79375;SDS011;68846;53.150;18.136;2024-03-02T09:18:15;31.00;;;18.00;;
79375;SDS011;68846;53.150;18.136;2024-03-02T09:20:42;31.80;;;18.50;;
79375;SDS011;68846;53.150;18.136;2024-03-02T09:23:10;34.90;;;18.00;;
79375;SDS011;68846;53.150;18.136;2024-03-02T09:25:38;31.00;;;17.90;;
79375;SDS011;68846;53.150;18.136;2024-03-02T09:28:06;33.70;;;18.60;;
79375;SDS011;68846;53.150;18.136;2024-03-02T09:30:34;33.80;;;17.80;;
79375;SDS011;68846;53.150;18.136;2024-03-02T09:33:03;33.20;;;17.40;;
79375;SDS011;68846;53.150;18.136;2024-03-02T09:35:32;31.80;;;17.90;;
79375;SDS011;68846;53.150;18.136;2024-03-02T09:37:59;32.60;;;17.90;;
79375;SDS011;68846;53.150;18.136;2024-03-02T09:40:28;31.40;;;18.20;;
79375;SDS011;68846;53.150;18.136;2024-03-02T09:42:56;31.80;;;18.20;;
79375;SDS011;68846;53.150;18.136;2024-03-02T09:45:24;34.80;;;18.30;;
79375;SDS011;68846;53.150;18.136;2024-03-02T09:48:19;35.30;;;17.40;;
79375;SDS011;68846;53.150;18.136;2024-03-02T09:50:48;29.40;;;16.20;;
79375;SDS011;68846;53.150;18.136;2024-03-02T09:57:28;33.00;;;18.70;;
79375;SDS011;68846;53.150;18.136;2024-03-02T09:59:55;31.50;;;17.00;;
79375;SDS011;68846;53.150;18.136;2024-03-02T10:02:23;31.20;;;17.70;;
79375;SDS011;68846;53.150;18.136;2024-03-02T10:04:52;34.30;;;18.20;;
79375;SDS011;68846;53.150;18.136;2024-03-02T10:07:20;27.90;;;18.00;;
79375;SDS011;68846;53.150;18.136;2024-03-02T10:09:48;35.60;;;18.50;;
79375;SDS011;68846;53.150;18.136;2024-03-02T10:17:43;34.40;;;18.60;;
79375;SDS011;68846;53.150;18.136;2024-03-02T10:24:36;34.40;;;17.70;;
79375;SDS011;68846;53.150;18.136;2024-03-02T10:27:10;30.20;;;17.90;;
79375;SDS011;68846;53.150;18.136;2024-03-02T10:30:00;34.40;;;19.60;;
79375;SDS011;68846;53.150;18.136;2024-03-02T10:32:30;33.20;;;18.10;;
79375;SDS011;68846;53.150;18.136;2024-03-02T10:34:58;31.80;;;17.70;;
79375;SDS011;68846;53.150;18.136;2024-03-02T10:37:27;32.50;;;18.10;;
79375;SDS011;68846;53.150;18.136;2024-03-02T10:43:17;31.50;;;18.10;;
79375;SDS011;68846;53.150;18.136;2024-03-02T10:45:47;34.00;;;17.30;;
79375;SDS011;68846;53.150;18.136;2024-03-02T10:48:16;32.30;;;18.70;;
79375;SDS011;68846;53.150;18.136;2024-03-02T10:54:09;33.50;;;18.30;;
79375;SDS011;68846;53.150;18.136;2024-03-02T11:00:26;29.50;;;18.30;;
79375;SDS011;68846;53.150;18.136;2024-03-02T11:03:20;31.40;;;18.30;;
79375;SDS011;68846;53.150;18.136;2024-03-02T11:05:48;28.70;;;17.20;;
79375;SDS011;68846;53.150;18.136;2024-03-02T11:08:18;38.40;;;19.20;;
79375;SDS011;68846;53.150;18.136;2024-03-02T11:10:54;29.60;;;17.50;;
79375;SDS011;68846;53.150;18.136;2024-03-02T11:13:33;31.00;;;19.70;;
79375;SDS011;68846;53.150;18.136;2024-03-02T11:20:13;31.50;;;17.10;;
79375;SDS011;68846;53.150;18.136;2024-03-02T11:22:42;32.40;;;18.80;;
79375;SDS011;68846;53.150;18.136;2024-03-02T11:25:27;30.50;;;18.00;;
79375;SDS011;68846;53.150;18.136;2024-03-02T11:33:00;29.00;;;16.80;;
79375;SDS011;68846;53.150;18.136;2024-03-02T11:35:35;31.10;;;18.50;;
79375;SDS011;68846;53.150;18.136;2024-03-02T11:38:19;33.40;;;17.80;;
79375;SDS011;68846;53.150;18.136;2024-03-02T11:40:47;32.50;;;17.70;;
79375;SDS011;68846;53.150;18.136;2024-03-02T11:43:15;30.80;;;17.90;;
79375;SDS011;68846;53.150;18.136;2024-03-02T11:45:44;29.90;;;17.50;;
79375;SDS011;68846;53.150;18.136;2024-03-02T11:48:14;26.60;;;16.40;;
79375;SDS011;68846;53.150;18.136;2024-03-02T11:50:47;31.10;;;18.00;;
79375;SDS011;68846;53.150;18.136;2024-03-02T11:53:30;31.50;;;18.30;;
79375;SDS011;68846;53.150;18.136;2024-03-02T11:56:02;30.20;;;18.10;;
79375;SDS011;68846;53.150;18.136;2024-03-02T11:58:32;32.00;;;18.30;;
79375;SDS011;68846;53.150;18.136;2024-03-02T12:01:04;32.70;;;18.90;;
79375;SDS011;68846;53.150;18.136;2024-03-02T12:03:31;31.20;;;17.80;;
79375;SDS011;68846;53.150;18.136;2024-03-02T12:06:00;31.60;;;17.30;;
79375;SDS011;68846;53.150;18.136;2024-03-02T12:08:27;31.10;;;18.20;;
79375;SDS011;68846;53.150;18.136;2024-03-02T12:11:00;27.50;;;17.00;;
79375;SDS011;68846;53.150;18.136;2024-03-02T12:13:29;33.60;;;18.60;;
79375;SDS011;68846;53.150;18.136;2024-03-02T12:15:57;31.00;;;18.20;;
79375;SDS011;68846;53.150;18.136;2024-03-02T12:18:25;35.80;;;19.20;;
79375;SDS011;68846;53.150;18.136;2024-03-02T12:20:53;32.60;;;19.30;;
79375;SDS011;68846;53.150;18.136;2024-03-02T12:23:26;30.40;;;17.00;;
79375;SDS011;68846;53.150;18.136;2024-03-02T12:25:53;32.40;;;18.70;;
79375;SDS011;68846;53.150;18.136;2024-03-02T12:28:22;30.60;;;18.40;;
79375;SDS011;68846;53.150;18.136;2024-03-02T12:30:51;30.10;;;18.10;;
79375;SDS011;68846;53.150;18.136;2024-03-02T12:33:19;31.30;;;18.20;;
79375;SDS011;68846;53.150;18.136;2024-03-02T12:35:48;35.00;;;18.70;;
79375;SDS011;68846;53.150;18.136;2024-03-02T12:38:17;33.20;;;17.80;;
79375;SDS011;68846;53.150;18.136;2024-03-02T12:40:48;32.50;;;18.60;;
79375;SDS011;68846;53.150;18.136;2024-03-02T12:43:16;31.50;;;19.70;;
79375;SDS011;68846;53.150;18.136;2024-03-02T12:45:44;30.30;;;18.20;;
79375;SDS011;68846;53.150;18.136;2024-03-02T12:48:13;36.10;;;20.50;;
79375;SDS011;68846;53.150;18.136;2024-03-02T12:50:41;43.30;;;23.50;;
79375;SDS011;68846;53.150;18.136;2024-03-02T12:53:14;42.40;;;24.30;;
79375;SDS011;68846;53.150;18.136;2024-03-02T12:55:43;45.60;;;25.00;;
79375;SDS011;68846;53.150;18.136;2024-03-02T12:58:22;41.20;;;24.60;;
79375;SDS011;68846;53.150;18.136;2024-03-02T13:03:35;48.30;;;26.60;;
79375;SDS011;68846;53.150;18.136;2024-03-02T13:06:05;45.30;;;25.10;;
79375;SDS011;68846;53.150;18.136;2024-03-02T13:08:33;46.80;;;26.60;;
79375;SDS011;68846;53.150;18.136;2024-03-02T13:11:02;47.10;;;26.50;;
79375;SDS011;68846;53.150;18.136;2024-03-02T13:13:30;50.80;;;27.20;;
79375;SDS011;68846;53.150;18.136;2024-03-02T13:15:58;44.70;;;25.70;;
79375;SDS011;68846;53.150;18.136;2024-03-02T13:18:28;46.30;;;24.30;;
79375;SDS011;68846;53.150;18.136;2024-03-02T13:20:56;44.30;;;25.30;;
79375;SDS011;68846;53.150;18.136;2024-03-02T13:23:24;48.20;;;27.70;;
79375;SDS011;68846;53.150;18.136;2024-03-02T13:25:52;49.30;;;25.20;;
79375;SDS011;68846;53.150;18.136;2024-03-02T13:28:20;51.20;;;27.00;;
79375;SDS011;68846;53.150;18.136;2024-03-02T13:30:47;48.70;;;27.70;;
79375;SDS011;68846;53.150;18.136;2024-03-02T13:33:16;46.40;;;25.70;;
79375;SDS011;68846;53.150;18.136;2024-03-02T13:35:49;45.30;;;26.20;;
79375;SDS011;68846;53.150;18.136;2024-03-02T13:38:19;51.80;;;28.00;;
79375;SDS011;68846;53.150;18.136;2024-03-02T13:40:49;44.60;;;24.50;;
79375;SDS011;68846;53.150;18.136;2024-03-02T13:43:19;49.60;;;26.50;;
79375;SDS011;68846;53.150;18.136;2024-03-02T13:45:47;42.30;;;25.00;;
79375;SDS011;68846;53.150;18.136;2024-03-02T13:48:15;49.30;;;26.40;;
79375;SDS011;68846;53.150;18.136;2024-03-02T13:50:43;46.60;;;25.90;;
79375;SDS011;68846;53.150;18.136;2024-03-02T13:53:12;50.70;;;26.50;;
79375;SDS011;68846;53.150;18.136;2024-03-02T13:55:40;46.70;;;25.40;;
79375;SDS011;68846;53.150;18.136;2024-03-02T13:58:09;47.90;;;27.90;;
79375;SDS011;68846;53.150;18.136;2024-03-02T14:00:38;45.90;;;25.30;;
79375;SDS011;68846;53.150;18.136;2024-03-02T14:03:06;46.50;;;25.60;;
79375;SDS011;68846;53.150;18.136;2024-03-02T14:05:35;42.90;;;25.50;;
79375;SDS011;68846;53.150;18.136;2024-03-02T14:08:04;46.70;;;26.90;;
79375;SDS011;68846;53.150;18.136;2024-03-02T14:10:32;45.80;;;24.70;;
79375;SDS011;68846;53.150;18.136;2024-03-02T14:13:00;45.60;;;25.00;;
79375;SDS011;68846;53.150;18.136;2024-03-02T14:15:27;45.40;;;24.80;;
79375;SDS011;68846;53.150;18.136;2024-03-02T14:17:57;45.30;;;25.60;;
79375;SDS011;68846;53.150;18.136;2024-03-02T14:20:25;48.30;;;25.70;;
79375;SDS011;68846;53.150;18.136;2024-03-02T14:22:53;46.80;;;25.50;;
79375;SDS011;68846;53.150;18.136;2024-03-02T14:25:21;46.10;;;25.80;;
79375;SDS011;68846;53.150;18.136;2024-03-02T14:27:50;48.50;;;24.50;;
79375;SDS011;68846;53.150;18.136;2024-03-02T14:30:18;43.60;;;25.20;;
79375;SDS011;68846;53.150;18.136;2024-03-02T14:32:46;47.30;;;25.50;;
79375;SDS011;68846;53.150;18.136;2024-03-02T14:35:14;47.00;;;25.90;;
79375;SDS011;68846;53.150;18.136;2024-03-02T14:37:43;46.30;;;24.90;;
79375;SDS011;68846;53.150;18.136;2024-03-02T14:40:13;48.50;;;26.40;;
79375;SDS011;68846;53.150;18.136;2024-03-02T14:42:40;46.70;;;25.70;;
79375;SDS011;68846;53.150;18.136;2024-03-02T14:45:09;46.70;;;24.50;;
79375;SDS011;68846;53.150;18.136;2024-03-02T14:47:37;47.40;;;24.80;;
79375;SDS011;68846;53.150;18.136;2024-03-02T14:50:05;50.90;;;26.20;;
79375;SDS011;68846;53.150;18.136;2024-03-02T14:52:37;49.00;;;26.10;;
79375;SDS011;68846;53.150;18.136;2024-03-02T14:55:05;49.20;;;24.60;;
79375;SDS011;68846;53.150;18.136;2024-03-02T14:57:36;47.60;;;25.30;;
79375;SDS011;68846;53.150;18.136;2024-03-02T15:00:05;44.10;;;24.30;;
79375;SDS011;68846;53.150;18.136;2024-03-02T15:02:35;47.10;;;25.40;;
79375;SDS011;68846;53.150;18.136;2024-03-02T15:05:03;44.50;;;24.50;;
79375;SDS011;68846;53.150;18.136;2024-03-02T15:07:33;42.10;;;24.80;;
79375;SDS011;68846;53.150;18.136;2024-03-02T15:10:01;42.70;;;23.70;;
79375;SDS011;68846;53.150;18.136;2024-03-02T15:12:31;42.20;;;23.10;;
79375;SDS011;68846;53.150;18.136;2024-03-02T15:14:59;50.20;;;25.70;;